DLH2HM EDDH-EGCC
Flight info
| Callsign | DLH2HM |
|---|---|
| Flight time | 1h 16m |
| Altitude | 38000 |
| Route | WSN5G/33 WSN N125 ITMIZ DCT MIMVA DCT OTBED |
| Aircraft | A321/M-DE2E3FGIJ1LORVWXYZ/HB2 |
Departure
| Time | 2026-05-07 18:31 |
|---|---|
| Airport | Hamburg Helmut Schmidt Airport (EDDH) |
Arrival
| Time | 2026-05-07 19:48 |
|---|---|
| Airport | Manchester Airport (EGCC) |
| Time | Latitude | Longitude | Altitude | Speed | Heading |
|---|---|---|---|---|---|
| 2026-05-07 18:00 | 53.62890 | 10.00216 | 49 ft | 0 kts | 121° |
| 2026-05-07 18:25 | 53.62892 | 10.00212 | 47 ft | 2 kts | 121° |
| 2026-05-07 18:25 | 53.62906 | 10.00176 | 45 ft | 4 kts | 130° |
| 2026-05-07 18:26 | 53.62924 | 10.00142 | 45 ft | 4 kts | 129° |
| 2026-05-07 18:26 | 53.62935 | 10.00121 | 44 ft | 4 kts | 50° |
| 2026-05-07 18:26 | 53.62935 | 10.00119 | 44 ft | 0 kts | 33° |
| 2026-05-07 18:28 | 53.62936 | 10.00119 | 44 ft | 0 kts | 33° |
| 2026-05-07 18:28 | 53.62944 | 10.00123 | 47 ft | 4 kts | 12° |
| 2026-05-07 18:29 | 53.62975 | 10.00094 | 47 ft | 6 kts | 269° |
| 2026-05-07 18:29 | 53.62947 | 10.00056 | 46 ft | 6 kts | 215° |
| 2026-05-07 18:29 | 53.62919 | 9.99993 | 48 ft | 8 kts | 244° |
| 2026-05-07 18:29 | 53.62895 | 9.99905 | 48 ft | 9 kts | 244° |
| 2026-05-07 18:30 | 53.62861 | 9.99788 | 43 ft | 12 kts | 255° |
| 2026-05-07 18:30 | 53.62884 | 9.99735 | 45 ft | 0 kts | 331° |
| 2026-05-07 18:31 | 53.63120 | 9.99528 | 46 ft | 87 kts | 333° |
| 2026-05-07 18:31 | 53.63919 | 9.98832 | 62 ft | 165 kts | 331° |
| 2026-05-07 18:31 | 53.64991 | 9.97886 | 823 ft | 177 kts | 335° |
| 2026-05-07 18:32 | 53.66132 | 9.96901 | 1721 ft | 191 kts | 336° |
| 2026-05-07 18:32 | 53.67327 | 9.95870 | 2329 ft | 195 kts | 336° |
| 2026-05-07 18:32 | 53.68566 | 9.94800 | 2824 ft | 208 kts | 335° |
| 2026-05-07 18:32 | 53.69903 | 9.93649 | 3296 ft | 221 kts | 335° |
| 2026-05-07 18:33 | 53.71166 | 9.92094 | 3992 ft | 231 kts | 307° |
| 2026-05-07 18:33 | 53.71736 | 9.89532 | 4605 ft | 247 kts | 271° |
| 2026-05-07 18:33 | 53.71410 | 9.86601 | 5116 ft | 262 kts | 250° |
| 2026-05-07 18:33 | 53.70734 | 9.83651 | 5711 ft | 274 kts | 246° |
| 2026-05-07 18:34 | 53.69988 | 9.80666 | 6515 ft | 279 kts | 247° |
| 2026-05-07 18:34 | 53.69275 | 9.77668 | 7324 ft | 280 kts | 249° |
| 2026-05-07 18:34 | 53.68575 | 9.74527 | 8138 ft | 283 kts | 250° |
| 2026-05-07 18:34 | 53.67910 | 9.71365 | 8939 ft | 286 kts | 251° |
| 2026-05-07 18:35 | 53.67263 | 9.68168 | 9723 ft | 290 kts | 251° |
| 2026-05-07 18:35 | 53.66622 | 9.64914 | 10168 ft | 294 kts | 253° |
| 2026-05-07 18:35 | 53.66251 | 9.61493 | 10632 ft | 303 kts | 264° |
| 2026-05-07 18:35 | 53.66034 | 9.58075 | 11954 ft | 280 kts | 264° |
| 2026-05-07 18:36 | 53.65839 | 9.54889 | 13128 ft | 266 kts | 264° |
| 2026-05-07 18:36 | 53.65650 | 9.51790 | 13757 ft | 275 kts | 264° |
| 2026-05-07 18:36 | 53.65448 | 9.48548 | 14309 ft | 281 kts | 264° |
| 2026-05-07 18:36 | 53.65242 | 9.45261 | 14915 ft | 285 kts | 264° |
| 2026-05-07 18:37 | 53.65030 | 9.41885 | 15394 ft | 293 kts | 264° |
| 2026-05-07 18:37 | 53.64812 | 9.38452 | 15978 ft | 297 kts | 264° |
| 2026-05-07 18:37 | 53.64651 | 9.35910 | 16439 ft | 299 kts | 264° |
| 2026-05-07 18:37 | 53.64366 | 9.31470 | 17131 ft | 305 kts | 264° |
| 2026-05-07 18:38 | 53.64135 | 9.27895 | 17729 ft | 308 kts | 264° |
| 2026-05-07 18:38 | 53.63903 | 9.24282 | 18335 ft | 312 kts | 264° |
| 2026-05-07 18:38 | 53.63669 | 9.20640 | 18865 ft | 314 kts | 264° |
| 2026-05-07 18:38 | 53.63431 | 9.16975 | 19399 ft | 316 kts | 264° |
| 2026-05-07 18:39 | 53.63189 | 9.13270 | 19916 ft | 318 kts | 264° |
| 2026-05-07 18:39 | 53.62944 | 9.09554 | 20438 ft | 321 kts | 263° |
| 2026-05-07 18:39 | 53.62695 | 9.05804 | 20966 ft | 323 kts | 263° |
| 2026-05-07 18:39 | 53.62443 | 9.02035 | 21503 ft | 325 kts | 263° |
| 2026-05-07 18:40 | 53.62190 | 8.98237 | 22026 ft | 327 kts | 263° |
| 2026-05-07 18:40 | 53.61933 | 8.94433 | 22557 ft | 329 kts | 263° |
| 2026-05-07 18:40 | 53.61672 | 8.90576 | 23050 ft | 332 kts | 263° |
| 2026-05-07 18:40 | 53.61410 | 8.86705 | 23546 ft | 334 kts | 263° |
| 2026-05-07 18:41 | 53.61234 | 8.84119 | 23845 ft | 336 kts | 263° |
| 2026-05-07 18:41 | 53.60861 | 8.78685 | 24400 ft | 340 kts | 263° |
| 2026-05-07 18:41 | 53.60599 | 8.74908 | 24817 ft | 341 kts | 263° |
| 2026-05-07 18:41 | 53.60322 | 8.70935 | 25221 ft | 343 kts | 263° |
| 2026-05-07 18:42 | 53.60040 | 8.66926 | 25618 ft | 346 kts | 263° |
| 2026-05-07 18:42 | 53.59756 | 8.62892 | 25987 ft | 349 kts | 263° |
| 2026-05-07 18:42 | 53.59474 | 8.58834 | 26392 ft | 350 kts | 263° |
| 2026-05-07 18:42 | 53.59191 | 8.54737 | 26785 ft | 353 kts | 263° |
| 2026-05-07 18:43 | 53.58904 | 8.50635 | 27209 ft | 354 kts | 263° |
| 2026-05-07 18:43 | 53.58610 | 8.46499 | 27572 ft | 357 kts | 263° |
| 2026-05-07 18:43 | 53.58310 | 8.42343 | 27937 ft | 359 kts | 263° |
| 2026-05-07 18:43 | 53.58005 | 8.38160 | 28320 ft | 361 kts | 263° |
| 2026-05-07 18:44 | 53.57699 | 8.33950 | 28693 ft | 364 kts | 263° |
| 2026-05-07 18:44 | 53.57390 | 8.29719 | 29069 ft | 366 kts | 263° |
| 2026-05-07 18:44 | 53.57078 | 8.25438 | 29302 ft | 371 kts | 263° |
| 2026-05-07 18:44 | 53.56761 | 8.21117 | 29611 ft | 374 kts | 263° |
| 2026-05-07 18:45 | 53.56441 | 8.16765 | 29946 ft | 376 kts | 263° |
| 2026-05-07 18:45 | 53.56113 | 8.12379 | 30271 ft | 379 kts | 262° |
| 2026-05-07 18:45 | 53.55784 | 8.07980 | 30543 ft | 381 kts | 262° |
| 2026-05-07 18:45 | 53.55449 | 8.03541 | 30815 ft | 383 kts | 263° |
| 2026-05-07 18:46 | 53.55111 | 7.99085 | 31091 ft | 385 kts | 263° |
| 2026-05-07 18:46 | 53.54772 | 7.94608 | 31330 ft | 389 kts | 263° |
| 2026-05-07 18:46 | 53.54431 | 7.90120 | 31458 ft | 395 kts | 262° |
| 2026-05-07 18:46 | 53.54078 | 7.85506 | 31587 ft | 401 kts | 262° |
| 2026-05-07 18:47 | 53.53720 | 7.80823 | 31713 ft | 407 kts | 262° |
| 2026-05-07 18:47 | 53.53355 | 7.76076 | 31847 ft | 413 kts | 262° |
| 2026-05-07 18:47 | 53.52983 | 7.71251 | 31979 ft | 419 kts | 262° |
| 2026-05-07 18:47 | 53.52603 | 7.66352 | 32118 ft | 425 kts | 262° |
| 2026-05-07 18:48 | 53.52214 | 7.61401 | 32242 ft | 431 kts | 262° |
| 2026-05-07 18:48 | 53.51816 | 7.56385 | 32379 ft | 436 kts | 262° |
| 2026-05-07 18:48 | 53.51412 | 7.51303 | 32514 ft | 442 kts | 262° |
| 2026-05-07 18:48 | 53.50999 | 7.46159 | 32662 ft | 447 kts | 262° |
| 2026-05-07 18:49 | 53.50578 | 7.40973 | 32824 ft | 450 kts | 262° |
| 2026-05-07 18:49 | 53.50155 | 7.35765 | 33113 ft | 450 kts | 262° |
| 2026-05-07 18:49 | 53.49730 | 7.30554 | 33404 ft | 450 kts | 261° |
| 2026-05-07 18:49 | 53.49308 | 7.25355 | 33695 ft | 450 kts | 261° |
| 2026-05-07 18:50 | 53.48881 | 7.20154 | 33972 ft | 450 kts | 261° |
| 2026-05-07 18:50 | 53.48451 | 7.14964 | 34220 ft | 450 kts | 262° |
| 2026-05-07 18:50 | 53.48019 | 7.09743 | 34457 ft | 450 kts | 261° |
| 2026-05-07 18:50 | 53.47585 | 7.04547 | 34719 ft | 449 kts | 260° |
| 2026-05-07 18:51 | 53.47150 | 6.99370 | 34979 ft | 448 kts | 261° |
| 2026-05-07 18:51 | 53.46713 | 6.94200 | 35238 ft | 447 kts | 261° |
| 2026-05-07 18:51 | 53.46275 | 6.89044 | 35502 ft | 445 kts | 261° |
| 2026-05-07 18:51 | 53.45838 | 6.83908 | 35752 ft | 445 kts | 261° |
| 2026-05-07 18:52 | 53.45399 | 6.78775 | 35992 ft | 444 kts | 260° |
| 2026-05-07 18:52 | 53.44959 | 6.73662 | 36241 ft | 443 kts | 260° |
| 2026-05-07 18:52 | 53.44513 | 6.68547 | 36477 ft | 443 kts | 261° |
| 2026-05-07 18:52 | 53.44063 | 6.63437 | 36655 ft | 443 kts | 261° |
| 2026-05-07 18:53 | 53.43614 | 6.58330 | 36851 ft | 443 kts | 261° |
| 2026-05-07 18:53 | 53.43165 | 6.53217 | 37065 ft | 442 kts | 260° |
| 2026-05-07 18:53 | 53.42717 | 6.48115 | 37270 ft | 442 kts | 260° |
| 2026-05-07 18:53 | 53.42267 | 6.43025 | 37454 ft | 442 kts | 260° |
| 2026-05-07 18:54 | 53.41814 | 6.37934 | 37635 ft | 441 kts | 260° |
| 2026-05-07 18:54 | 53.41357 | 6.32858 | 37822 ft | 441 kts | 260° |
| 2026-05-07 18:54 | 53.40896 | 6.27781 | 38006 ft | 440 kts | 260° |
| 2026-05-07 18:54 | 53.40437 | 6.22718 | 38115 ft | 440 kts | 260° |
| 2026-05-07 18:55 | 53.39976 | 6.17650 | 38130 ft | 440 kts | 260° |
| 2026-05-07 18:55 | 53.39049 | 6.07530 | 38120 ft | 440 kts | 260° |
| 2026-05-07 18:56 | 53.38117 | 5.97464 | 38115 ft | 440 kts | 260° |
| 2026-05-07 18:56 | 53.37169 | 5.87346 | 38114 ft | 440 kts | 260° |
| 2026-05-07 18:57 | 53.36204 | 5.77167 | 38115 ft | 440 kts | 260° |
| 2026-05-07 18:57 | 53.35245 | 5.67118 | 38122 ft | 440 kts | 260° |
| 2026-05-07 18:58 | 53.34431 | 5.58636 | 38150 ft | 441 kts | 260° |
| 2026-05-07 18:58 | 53.33293 | 5.46867 | 38150 ft | 441 kts | 259° |
| 2026-05-07 18:59 | 53.32457 | 5.38387 | 38137 ft | 441 kts | 259° |
| 2026-05-07 18:59 | 53.31463 | 5.28329 | 38134 ft | 441 kts | 259° |
| 2026-05-07 19:00 | 53.30460 | 5.18209 | 38130 ft | 441 kts | 259° |
| 2026-05-07 19:00 | 53.29442 | 5.08096 | 38138 ft | 441 kts | 259° |
| 2026-05-07 19:01 | 53.28415 | 4.97987 | 38138 ft | 441 kts | 259° |
| 2026-05-07 19:01 | 53.27382 | 4.87881 | 38135 ft | 441 kts | 259° |
| 2026-05-07 19:02 | 53.26342 | 4.77781 | 38135 ft | 441 kts | 259° |
| 2026-05-07 19:02 | 53.25295 | 4.67683 | 38152 ft | 441 kts | 259° |
| 2026-05-07 19:03 | 53.24233 | 4.57593 | 38153 ft | 441 kts | 259° |
| 2026-05-07 19:03 | 53.23160 | 4.47508 | 38153 ft | 441 kts | 259° |
| 2026-05-07 19:04 | 53.22081 | 4.37429 | 38153 ft | 441 kts | 259° |
| 2026-05-07 19:04 | 53.21001 | 4.27352 | 38153 ft | 441 kts | 258° |
| 2026-05-07 19:05 | 53.19912 | 4.17279 | 38152 ft | 441 kts | 258° |
| 2026-05-07 19:05 | 53.18808 | 4.07217 | 38157 ft | 441 kts | 258° |
| 2026-05-07 19:06 | 53.17696 | 3.97163 | 38146 ft | 441 kts | 258° |
| 2026-05-07 19:06 | 53.16019 | 3.82126 | 38144 ft | 440 kts | 258° |
| 2026-05-07 19:07 | 53.14887 | 3.72105 | 38146 ft | 440 kts | 258° |
| 2026-05-07 19:07 | 53.13754 | 3.62105 | 38146 ft | 440 kts | 258° |
| 2026-05-07 19:08 | 53.12609 | 3.52107 | 38151 ft | 439 kts | 258° |
| 2026-05-07 19:08 | 53.11461 | 3.42169 | 38153 ft | 439 kts | 258° |
| 2026-05-07 19:09 | 53.10386 | 3.32164 | 38151 ft | 440 kts | 264° |
| 2026-05-07 19:09 | 53.10669 | 3.22006 | 38154 ft | 442 kts | 275° |
| 2026-05-07 19:10 | 53.11392 | 3.11852 | 38152 ft | 442 kts | 275° |
| 2026-05-07 19:10 | 53.12094 | 3.01689 | 38146 ft | 442 kts | 275° |
| 2026-05-07 19:11 | 53.12797 | 2.91520 | 38134 ft | 442 kts | 275° |
| 2026-05-07 19:11 | 53.13495 | 2.81353 | 38138 ft | 442 kts | 275° |
| 2026-05-07 19:12 | 53.14176 | 2.71184 | 38140 ft | 442 kts | 275° |
| 2026-05-07 19:12 | 53.14840 | 2.61015 | 38128 ft | 442 kts | 275° |
| 2026-05-07 19:13 | 53.15494 | 2.50835 | 38140 ft | 442 kts | 275° |
| 2026-05-07 19:13 | 53.16144 | 2.40663 | 38129 ft | 442 kts | 275° |
| 2026-05-07 19:14 | 53.16788 | 2.30491 | 38140 ft | 441 kts | 274° |
| 2026-05-07 19:14 | 53.17416 | 2.20310 | 38130 ft | 441 kts | 274° |
| 2026-05-07 19:15 | 53.18035 | 2.10137 | 38127 ft | 441 kts | 274° |
| 2026-05-07 19:15 | 53.18649 | 1.99953 | 38148 ft | 441 kts | 274° |
| 2026-05-07 19:16 | 53.19255 | 1.89774 | 38143 ft | 441 kts | 274° |
| 2026-05-07 19:16 | 53.19846 | 1.79607 | 38133 ft | 441 kts | 274° |
| 2026-05-07 19:17 | 53.20430 | 1.69429 | 38129 ft | 441 kts | 274° |
| 2026-05-07 19:17 | 53.21010 | 1.59253 | 38122 ft | 441 kts | 274° |
| 2026-05-07 19:18 | 53.21299 | 1.54171 | 37856 ft | 440 kts | 274° |
| 2026-05-07 19:18 | 53.21584 | 1.49099 | 37591 ft | 439 kts | 274° |
| 2026-05-07 19:18 | 53.21867 | 1.44017 | 37322 ft | 439 kts | 274° |
| 2026-05-07 19:18 | 53.22147 | 1.38954 | 37204 ft | 436 kts | 273° |
| 2026-05-07 19:19 | 53.22425 | 1.33907 | 37358 ft | 438 kts | 273° |
| 2026-05-07 19:19 | 53.22699 | 1.28850 | 37263 ft | 439 kts | 273° |
| 2026-05-07 19:19 | 53.22971 | 1.23737 | 36493 ft | 443 kts | 273° |
| 2026-05-07 19:19 | 53.23239 | 1.18647 | 35975 ft | 439 kts | 273° |
| 2026-05-07 19:20 | 53.23501 | 1.13650 | 35485 ft | 436 kts | 273° |
| 2026-05-07 19:20 | 53.23764 | 1.08621 | 34991 ft | 433 kts | 273° |
| 2026-05-07 19:20 | 53.24024 | 1.03633 | 34515 ft | 431 kts | 273° |
| 2026-05-07 19:20 | 53.24281 | 0.98667 | 34033 ft | 428 kts | 272° |
| 2026-05-07 19:21 | 53.24535 | 0.93733 | 33522 ft | 424 kts | 273° |
| 2026-05-07 19:21 | 53.24784 | 0.88856 | 33055 ft | 419 kts | 273° |
| 2026-05-07 19:21 | 53.25031 | 0.84029 | 32592 ft | 414 kts | 272° |
| 2026-05-07 19:21 | 53.25272 | 0.79261 | 32129 ft | 410 kts | 272° |
| 2026-05-07 19:22 | 53.25508 | 0.74504 | 31834 ft | 413 kts | 272° |
| 2026-05-07 19:22 | 53.25740 | 0.69706 | 31572 ft | 415 kts | 272° |
| 2026-05-07 19:22 | 53.25969 | 0.64906 | 31316 ft | 415 kts | 272° |
| 2026-05-07 19:22 | 53.26194 | 0.60111 | 31054 ft | 414 kts | 272° |
| 2026-05-07 19:23 | 53.26421 | 0.55327 | 30805 ft | 412 kts | 272° |
| 2026-05-07 19:23 | 53.26648 | 0.50568 | 30563 ft | 410 kts | 272° |
| 2026-05-07 19:23 | 53.26873 | 0.45833 | 30323 ft | 407 kts | 272° |
| 2026-05-07 19:23 | 53.27095 | 0.41131 | 30056 ft | 405 kts | 272° |
| 2026-05-07 19:24 | 53.27314 | 0.36459 | 29751 ft | 403 kts | 272° |
| 2026-05-07 19:24 | 53.27529 | 0.31806 | 29466 ft | 401 kts | 272° |
| 2026-05-07 19:24 | 53.27739 | 0.27174 | 29181 ft | 399 kts | 272° |
| 2026-05-07 19:24 | 53.27946 | 0.22566 | 28906 ft | 396 kts | 272° |
| 2026-05-07 19:25 | 53.28149 | 0.17994 | 29035 ft | 395 kts | 271° |
| 2026-05-07 19:25 | 53.28356 | 0.13405 | 29028 ft | 398 kts | 274° |
| 2026-05-07 19:25 | 53.29007 | 0.08918 | 28742 ft | 399 kts | 291° |
| 2026-05-07 19:25 | 53.30148 | 0.04697 | 28460 ft | 399 kts | 292° |
| 2026-05-07 19:26 | 53.31313 | 0.00496 | 28185 ft | 397 kts | 292° |
| 2026-05-07 19:26 | 53.32470 | -0.03664 | 27918 ft | 394 kts | 292° |
| 2026-05-07 19:26 | 53.33623 | -0.07814 | 27646 ft | 391 kts | 292° |
| 2026-05-07 19:26 | 53.34763 | -0.11923 | 27382 ft | 389 kts | 292° |
| 2026-05-07 19:27 | 53.35897 | -0.16022 | 27119 ft | 387 kts | 292° |
| 2026-05-07 19:27 | 53.37021 | -0.20100 | 26857 ft | 385 kts | 292° |
| 2026-05-07 19:27 | 53.38137 | -0.24159 | 26595 ft | 383 kts | 292° |
| 2026-05-07 19:27 | 53.39246 | -0.28202 | 26339 ft | 381 kts | 292° |
| 2026-05-07 19:28 | 53.40351 | -0.32234 | 26084 ft | 379 kts | 292° |
| 2026-05-07 19:28 | 53.41444 | -0.36234 | 25846 ft | 375 kts | 292° |
| 2026-05-07 19:28 | 53.42503 | -0.40118 | 25505 ft | 369 kts | 292° |
| 2026-05-07 19:28 | 53.43562 | -0.44010 | 25046 ft | 366 kts | 292° |
| 2026-05-07 19:29 | 53.44618 | -0.47898 | 24533 ft | 366 kts | 292° |
| 2026-05-07 19:29 | 53.45667 | -0.51768 | 24078 ft | 363 kts | 292° |
| 2026-05-07 19:29 | 53.46708 | -0.55614 | 23616 ft | 360 kts | 292° |
| 2026-05-07 19:29 | 53.47740 | -0.59426 | 23100 ft | 358 kts | 292° |
| 2026-05-07 19:30 | 53.48767 | -0.63217 | 22574 ft | 355 kts | 292° |
| 2026-05-07 19:30 | 53.49783 | -0.66977 | 22071 ft | 352 kts | 292° |
| 2026-05-07 19:30 | 53.50786 | -0.70703 | 21575 ft | 349 kts | 292° |
| 2026-05-07 19:30 | 53.51782 | -0.74413 | 21100 ft | 347 kts | 291° |
| 2026-05-07 19:31 | 53.52765 | -0.78087 | 20604 ft | 344 kts | 291° |
| 2026-05-07 19:31 | 53.53739 | -0.81743 | 20137 ft | 341 kts | 291° |
| 2026-05-07 19:31 | 53.54706 | -0.85371 | 19655 ft | 338 kts | 291° |
| 2026-05-07 19:31 | 53.55664 | -0.88955 | 18980 ft | 334 kts | 291° |
| 2026-05-07 19:32 | 53.56610 | -0.92502 | 18299 ft | 331 kts | 291° |
| 2026-05-07 19:32 | 53.57547 | -0.96026 | 17543 ft | 328 kts | 291° |
| 2026-05-07 19:32 | 53.58473 | -0.99521 | 16808 ft | 325 kts | 291° |
| 2026-05-07 19:32 | 53.59389 | -1.02976 | 16092 ft | 322 kts | 291° |
| 2026-05-07 19:33 | 53.60297 | -1.06403 | 15467 ft | 317 kts | 291° |
| 2026-05-07 19:33 | 53.61011 | -1.09831 | 15099 ft | 304 kts | 279° |
| 2026-05-07 19:33 | 53.61478 | -1.13333 | 15033 ft | 307 kts | 279° |
| 2026-05-07 19:33 | 53.61933 | -1.16703 | 15045 ft | 308 kts | 279° |
| 2026-05-07 19:34 | 53.62424 | -1.20275 | 15045 ft | 294 kts | 280° |
| 2026-05-07 19:34 | 53.62889 | -1.23627 | 14984 ft | 291 kts | 280° |
| 2026-05-07 19:34 | 53.63347 | -1.26931 | 14615 ft | 289 kts | 279° |
| 2026-05-07 19:34 | 53.63803 | -1.30229 | 14240 ft | 288 kts | 279° |
| 2026-05-07 19:35 | 53.64251 | -1.33508 | 13873 ft | 287 kts | 279° |
| 2026-05-07 19:35 | 53.64694 | -1.36778 | 13469 ft | 285 kts | 279° |
| 2026-05-07 19:35 | 53.65129 | -1.40015 | 13086 ft | 283 kts | 279° |
| 2026-05-07 19:35 | 53.65559 | -1.43227 | 12652 ft | 278 kts | 279° |
| 2026-05-07 19:36 | 53.65982 | -1.46376 | 11918 ft | 274 kts | 279° |
| 2026-05-07 19:36 | 53.66402 | -1.49494 | 11219 ft | 270 kts | 280° |
| 2026-05-07 19:36 | 53.66813 | -1.52559 | 10563 ft | 266 kts | 280° |
| 2026-05-07 19:36 | 53.67217 | -1.55579 | 9905 ft | 262 kts | 280° |
| 2026-05-07 19:37 | 53.67611 | -1.58523 | 9511 ft | 252 kts | 279° |
| 2026-05-07 19:37 | 53.67988 | -1.61354 | 9364 ft | 242 kts | 279° |
| 2026-05-07 19:37 | 53.68351 | -1.64085 | 8969 ft | 238 kts | 279° |
| 2026-05-07 19:37 | 53.68711 | -1.66813 | 8500 ft | 238 kts | 279° |
| 2026-05-07 19:38 | 53.69065 | -1.69509 | 8155 ft | 233 kts | 279° |
| 2026-05-07 19:38 | 53.69415 | -1.72162 | 8027 ft | 231 kts | 279° |
| 2026-05-07 19:38 | 53.69763 | -1.74820 | 8030 ft | 233 kts | 279° |
| 2026-05-07 19:38 | 53.70043 | -1.77475 | 7708 ft | 229 kts | 269° |
| 2026-05-07 19:39 | 53.69756 | -1.80077 | 7209 ft | 227 kts | 244° |
| 2026-05-07 19:39 | 53.68801 | -1.82142 | 7025 ft | 225 kts | 223° |
| 2026-05-07 19:39 | 53.67627 | -1.83911 | 7031 ft | 227 kts | 221° |
| 2026-05-07 19:39 | 53.66832 | -1.85066 | 7032 ft | 227 kts | 220° |
| 2026-05-07 19:40 | 53.65280 | -1.87318 | 7030 ft | 223 kts | 220° |
| 2026-05-07 19:40 | 53.64090 | -1.89045 | 7038 ft | 223 kts | 220° |
| 2026-05-07 19:40 | 53.62930 | -1.90727 | 7035 ft | 223 kts | 220° |
| 2026-05-07 19:40 | 53.61756 | -1.92426 | 7039 ft | 223 kts | 220° |
| 2026-05-07 19:41 | 53.60581 | -1.94134 | 7040 ft | 223 kts | 220° |
| 2026-05-07 19:41 | 53.59405 | -1.95829 | 7033 ft | 222 kts | 220° |
| 2026-05-07 19:41 | 53.58243 | -1.97512 | 6692 ft | 220 kts | 220° |
| 2026-05-07 19:41 | 53.57050 | -1.99253 | 5890 ft | 235 kts | 220° |
| 2026-05-07 19:42 | 53.55669 | -2.00867 | 5164 ft | 248 kts | 200° |
| 2026-05-07 19:42 | 53.53975 | -2.01153 | 4758 ft | 248 kts | 170° |
| 2026-05-07 19:42 | 53.52427 | -1.99938 | 4376 ft | 249 kts | 143° |
| 2026-05-07 19:42 | 53.51087 | -1.98153 | 4009 ft | 241 kts | 155° |
| 2026-05-07 19:43 | 53.49529 | -1.97777 | 3778 ft | 226 kts | 195° |
| 2026-05-07 19:43 | 53.48317 | -1.99294 | 3646 ft | 219 kts | 236° |
| 2026-05-07 19:43 | 53.47618 | -2.01555 | 3559 ft | 218 kts | 238° |
| 2026-05-07 19:43 | 53.46813 | -2.03630 | 3507 ft | 201 kts | 229° |
| 2026-05-07 19:44 | 53.45973 | -2.05442 | 3377 ft | 192 kts | 228° |
| 2026-05-07 19:44 | 53.45149 | -2.07165 | 3133 ft | 187 kts | 228° |
| 2026-05-07 19:44 | 53.44339 | -2.08855 | 2879 ft | 182 kts | 227° |
| 2026-05-07 19:44 | 53.43558 | -2.10479 | 2670 ft | 177 kts | 227° |
| 2026-05-07 19:45 | 53.42818 | -2.12027 | 2431 ft | 164 kts | 227° |
| 2026-05-07 19:45 | 53.42117 | -2.13471 | 2165 ft | 157 kts | 227° |
| 2026-05-07 19:45 | 53.41440 | -2.14878 | 2034 ft | 154 kts | 228° |
| 2026-05-07 19:45 | 53.40776 | -2.16284 | 1831 ft | 153 kts | 227° |
| 2026-05-07 19:46 | 53.40323 | -2.17218 | 1655 ft | 153 kts | 226° |
| 2026-05-07 19:46 | 53.39665 | -2.18573 | 1437 ft | 149 kts | 228° |
| 2026-05-07 19:46 | 53.39037 | -2.19894 | 1183 ft | 141 kts | 226° |
| 2026-05-07 19:46 | 53.38431 | -2.21150 | 969 ft | 137 kts | 227° |
| 2026-05-07 19:47 | 53.37831 | -2.22381 | 831 ft | 136 kts | 228° |
| 2026-05-07 19:47 | 53.37245 | -2.23626 | 650 ft | 135 kts | 230° |
| 2026-05-07 19:47 | 53.36651 | -2.24843 | 459 ft | 135 kts | 230° |
| 2026-05-07 19:47 | 53.36066 | -2.26061 | 300 ft | 134 kts | 230° |
| 2026-05-07 19:48 | 53.35527 | -2.27178 | 250 ft | 106 kts | 231° |
| 2026-05-07 19:48 | 53.35178 | -2.27900 | 240 ft | 54 kts | 232° |
| 2026-05-07 19:48 | 53.35006 | -2.28282 | 231 ft | 37 kts | 240° |
| 2026-05-07 19:48 | 53.34944 | -2.28622 | 229 ft | 18 kts | 260° |
| 2026-05-07 19:49 | 53.34973 | -2.28745 | 228 ft | 6 kts | 337° |
| 2026-05-07 19:49 | 53.35020 | -2.28734 | 229 ft | 8 kts | 38° |
| 2026-05-07 19:49 | 53.35056 | -2.28665 | 229 ft | 8 kts | 51° |
| 2026-05-07 19:49 | 53.35093 | -2.28588 | 230 ft | 10 kts | 51° |
| 2026-05-07 19:50 | 53.35139 | -2.28493 | 227 ft | 13 kts | 51° |
| 2026-05-07 19:50 | 53.35194 | -2.28379 | 230 ft | 12 kts | 51° |
| 2026-05-07 19:50 | 53.35245 | -2.28279 | 232 ft | 12 kts | 46° |
| 2026-05-07 19:50 | 53.35340 | -2.28184 | 234 ft | 17 kts | 9° |
| 2026-05-07 19:51 | 53.35443 | -2.28157 | 235 ft | 16 kts | 13° |
| 2026-05-07 19:51 | 53.35543 | -2.28062 | 235 ft | 18 kts | 45° |
| 2026-05-07 19:51 | 53.35619 | -2.27916 | 240 ft | 16 kts | 41° |
| 2026-05-07 19:51 | 53.35693 | -2.27884 | 244 ft | 7 kts | 5° |
| 2026-05-07 19:52 | 53.35733 | -2.27877 | 246 ft | 5 kts | 6° |
| 2026-05-07 19:52 | 53.35750 | -2.27874 | 247 ft | 0 kts | 6° |
| 2026-05-07 19:54 | 53.35764 | -2.27871 | 248 ft | 9 kts | 6° |
| 2026-05-07 19:55 | 53.35830 | -2.27859 | 252 ft | 9 kts | 6° |
| 2026-05-07 19:55 | 53.35890 | -2.27850 | 255 ft | 12 kts | 3° |
| 2026-05-07 19:55 | 53.35991 | -2.27900 | 255 ft | 16 kts | 319° |
| 2026-05-07 19:55 | 53.36082 | -2.28030 | 255 ft | 17 kts | 319° |
| 2026-05-07 19:56 | 53.36171 | -2.28157 | 255 ft | 16 kts | 336° |
| 2026-05-07 19:56 | 53.36238 | -2.28100 | 255 ft | 12 kts | 30° |
| 2026-05-07 19:56 | 53.36319 | -2.28044 | 255 ft | 14 kts | 20° |
| 2026-05-07 19:56 | 53.36393 | -2.27934 | 255 ft | 15 kts | 39° |
| 2026-05-07 19:57 | 53.36463 | -2.27980 | 255 ft | 12 kts | 319° |
| 2026-05-07 19:57 | 53.36523 | -2.27987 | 255 ft | 8 kts | 37° |
| 2026-05-07 19:57 | 53.36534 | -2.27968 | 255 ft | 0 kts | 44° |
| 2026-05-07 19:57 | 53.36540 | -2.27958 | 255 ft | 5 kts | 44° |
| 2026-05-07 19:58 | 53.36550 | -2.27942 | 255 ft | 0 kts | 45° |
| 2026-05-07 19:58 | 53.36552 | -2.27938 | 255 ft | 1 kts | 45° |
| 2026-05-07 19:58 | 53.36553 | -2.27937 | 255 ft | 0 kts | 45° |